KOKB

Bob Maxwell Memorial Airfield Airport

Oceanside, California, USA
METAR KOKB 162152Z AUTO 27010KT 9SM CLR 17/14 A3010 RMK AO2 SLP192 T01720139
Observed Flight Rules
Dec-16 @ 21:52 UTC (11 minutes ago) Visual Flight Rules
Wind Visibility Clouds
270° at 10 knots 9 miles
  • Clear skies
Temperatures Readings
Current 17°C / 63°F
Dewpoint 14°C / 57°F
Humidity 83%
Altimeter 30.1" Hg
Pressure 1019.2 hPa
Elevation 8
METAR KOKB 162152Z AUTO 27010KT 9SM CLR 17/14 A3010 RMK AO2 SLP192 T01720139
Observed Flight Rules
Dec-16 @ 21:52 UTC
(11 minutes ago)
VFR
Wind Visibility
270° at 10 knots 9 miles
Clouds
  • Clear skies
Temperature Dewpoint
17°C / 63°F 14°C / 57°F
Humidity Altimeter Pressure
83% 30.1" Hg 1019.2 hPa